Andacollo, Argentina
Current Conditions -  °F | °C
As of 11:00 AM on Sunday 21 Dec 2014 (Local Time) from SCIC Reporting Station
Broken Clouds Broken Clouds  
Wind Chill: 55°   Ceiling: 1500
Heat Index: 55°   Visibility: 6mi
Dew Point: 46°   Wind: 10mph
Humidity: 72%   Direction: 210°SSW
Pressure: 30.09"   Gusts: NA
Location:  37.05°S, 70.07°W
Report Text: SCIC 211400Z 21009KT 9999 BKN015 BKN100 13/08 Q1019
Loading
Personal Weather Stations






























Interactive Weather Map New forecast layout! Learn more

10-Day Weather Forecast

Advertisements
Track Severe Weather on mobile